Airport ID:KCCB
Update Time (UTC):19/02/2018 23:12
Wind Speed (Knots):10
Wind Direction (Magnetic):330
Temperature (°C):9.4
Dew Point (°C):-3.9
Humidity (%):40.4
Altimeter (inHg):29.84
Density Altitude (Feet):
Visibility (Miles):10
Clouds (Hundreds of feet):FEW028 BKN048 OVC055
Present Weather:
METAR:METAR KCCB 192310Z AUTO 34009G16KT 10SM FEW029 SCT044 BKN050 09/M04 A2984 RMK AO2

The data displayed is for advisory purposes only and is not to be used for flight planning or operations.

This page is not automatically refreshed. Reload the page to see current data.